createdAt,value
2022-09-01T00:03:27.546Z,100984.50
2022-09-01T00:08:53.673Z,100976.97
2022-09-01T00:14:29.666Z,100980.81
2022-09-01T00:19:52.456Z,100967.16
2022-09-01T00:25:14.319Z,100969.81
2022-09-01T00:30:36.182Z,100976.91
2022-09-01T00:35:58.382Z,100974.56
2022-09-01T00:41:23.425Z,100971.88
2022-09-01T00:46:50.358Z,100979.13
2022-09-01T00:52:17.272Z,100965.59
2022-09-01T00:57:40.024Z,100960.00
2022-09-01T01:03:01.951Z,100969.91
2022-09-01T01:08:28.502Z,100972.75
2022-09-01T01:14:09.210Z,100974.59
2022-09-01T01:19:43.977Z,100985.22
2022-09-01T01:25:07.961Z,100988.91
2022-09-01T01:30:29.841Z,100974.69
2022-09-01T01:35:53.370Z,100978.03
2022-09-01T01:41:18.096Z,100968.88
2022-09-01T01:46:49.240Z,100968.47
2022-09-01T01:52:12.811Z,100959.81
2022-09-01T01:57:34.680Z,100972.00
2022-09-01T02:02:56.720Z,100969.50
2022-09-01T02:08:20.246Z,100973.78
2022-09-01T02:13:42.223Z,100966.13
2022-09-01T02:19:06.880Z,100966.47
2022-09-01T02:24:28.750Z,100968.31
2022-09-01T02:29:50.617Z,100960.66
2022-09-01T02:35:12.545Z,100962.63
2022-09-01T02:40:34.419Z,100955.16
2022-09-01T02:45:59.671Z,100975.75
2022-09-01T02:51:24.333Z,100971.94
2022-09-01T02:56:46.917Z,100979.81
2022-09-01T03:02:09.582Z,100972.25
2022-09-01T03:07:32.171Z,100983.19
2022-09-01T03:12:54.846Z,100971.13
2022-09-01T03:18:17.477Z,100969.75
2022-09-01T03:23:39.596Z,100981.41
2022-09-01T03:29:01.515Z,100982.16
2022-09-01T03:34:23.407Z,100978.84
2022-09-01T03:39:45.330Z,100991.66
2022-09-01T03:45:08.519Z,100981.97
2022-09-01T03:50:30.335Z,100979.09
2022-09-01T03:55:52.184Z,100969.59
2022-09-01T04:01:14.689Z,100966.81
2022-09-01T04:06:37.360Z,100977.78
2022-09-01T04:11:59.182Z,100980.59
2022-09-01T04:17:20.976Z,100970.81
2022-09-01T04:22:42.988Z,100964.91
2022-09-01T04:28:05.830Z,100956.38
2022-09-01T04:33:29.057Z,100957.34
2022-09-01T04:38:53.528Z,100958.78
2022-09-01T04:44:17.633Z,100958.13
2022-09-01T04:49:39.493Z,100963.78
2022-09-01T04:55:01.417Z,100959.75
2022-09-01T05:00:25.917Z,100954.91
2022-09-01T05:05:47.782Z,100953.97
2022-09-01T05:11:09.611Z,100966.75
2022-09-01T05:16:31.572Z,100969.50
2022-09-01T05:21:53.434Z,100966.66
2022-09-01T05:27:15.302Z,100961.97
2022-09-01T05:32:38.250Z,100969.53
2022-09-01T05:38:00.089Z,100965.31
2022-09-01T05:43:21.924Z,100963.38
2022-09-01T05:48:44.813Z,100965.75
2022-09-01T05:54:06.774Z,100961.22
2022-09-01T05:59:29.367Z,100967.81
2022-09-01T06:04:51.207Z,100962.38
2022-09-01T06:10:13.368Z,100961.53
2022-09-01T06:15:36.837Z,100965.66
2022-09-01T06:20:58.760Z,100960.75
2022-09-01T06:26:26.470Z,100961.59
2022-09-01T06:31:48.488Z,100963.63
2022-09-01T06:37:11.787Z,100971.19
2022-09-01T06:42:33.607Z,100966.28
2022-09-01T06:47:59.455Z,100979.44
2022-09-01T06:53:38.957Z,100973.19
2022-09-01T06:59:02.749Z,100982.09
2022-09-01T07:04:25.213Z,100981.88
2022-09-01T07:09:50.025Z,100975.72
2022-09-01T07:21:38.897Z,100973.78
2022-09-01T07:26:52.100Z,100972.94
2022-09-01T07:43:37.522Z,100978.69
2022-09-01T07:49:02.903Z,100975.38
2022-09-01T07:54:43.085Z,100977.44
2022-09-01T08:00:06.409Z,100970.72
2022-09-01T08:05:28.319Z,100980.09
2022-09-01T08:10:50.325Z,100975.50
2022-09-01T08:16:19.573Z,100966.00
2022-09-01T08:21:41.753Z,100973.63
2022-09-01T08:27:03.632Z,100962.09
2022-09-01T08:32:25.470Z,100956.13
2022-09-01T08:37:47.313Z,100966.25
2022-09-01T08:43:43.758Z,100966.66
2022-09-01T08:49:26.136Z,100969.94
2022-09-01T08:54:53.843Z,100964.94
2022-09-01T09:00:19.373Z,100965.44
2022-09-01T09:06:10.164Z,100971.47
2022-09-01T09:11:59.594Z,100958.38
2022-09-01T09:17:25.034Z,100955.59
2022-09-01T09:22:48.615Z,100948.34
2022-09-01T09:28:10.516Z,100938.22
2022-09-01T09:33:51.808Z,100948.19
2022-09-01T09:39:18.102Z,100940.97
2022-09-01T09:44:45.203Z,100940.16
2022-09-01T09:50:34.930Z,100930.53
2022-09-01T09:55:56.694Z,100938.59
2022-09-01T10:01:21.210Z,100940.16
2022-09-01T10:06:46.816Z,100935.53
2022-09-01T10:12:11.008Z,100921.59
2022-09-01T10:17:38.398Z,100933.38
2022-09-01T10:23:03.791Z,100940.72
2022-09-01T10:28:27.952Z,100934.84
2022-09-01T10:33:50.279Z,100942.34
2022-09-01T10:39:14.859Z,100915.88
2022-09-01T10:44:55.115Z,100941.38
2022-09-01T10:50:35.957Z,100934.63
2022-09-01T10:56:35.439Z,100941.28
2022-09-01T11:02:34.654Z,100928.50
2022-09-01T11:08:01.133Z,100921.47
2022-09-01T11:13:49.937Z,100922.69
2022-09-01T11:19:18.057Z,100918.38
2022-09-01T11:24:39.804Z,100920.72
2022-09-01T11:30:09.683Z,100918.66
2022-09-01T11:35:32.087Z,100925.00
2022-09-01T11:40:58.108Z,100941.38
2022-09-01T11:46:29.077Z,100935.97
2022-09-01T11:51:51.322Z,100928.69
2022-09-01T11:57:40.809Z,100920.38
2022-09-01T12:03:02.763Z,100915.47
2022-09-01T12:08:26.017Z,100931.84
2022-09-01T12:13:56.640Z,100924.63
2022-09-01T12:19:28.785Z,100925.44
2022-09-01T12:24:54.588Z,100912.03
2022-09-01T12:30:16.728Z,100908.03
2022-09-01T12:35:38.549Z,100903.34
2022-09-01T12:41:00.419Z,100909.28
2022-09-01T12:46:43.922Z,100916.25
2022-09-01T12:52:21.530Z,100908.59
2022-09-01T12:57:50.823Z,100900.41
2022-09-01T13:03:16.226Z,100876.47
2022-09-01T13:08:38.103Z,100891.72
2022-09-01T13:13:59.941Z,100888.94
2022-09-01T13:19:27.706Z,100871.63
2022-09-01T13:24:50.881Z,100880.59
2022-09-01T13:30:15.066Z,100877.88
2022-09-01T13:35:36.897Z,100863.28
2022-09-01T13:40:59.896Z,100889.56
2022-09-01T13:46:21.727Z,100881.75
2022-09-01T13:51:43.530Z,100895.84
2022-09-01T13:57:05.569Z,100897.09
2022-09-01T14:02:27.470Z,100895.84
2022-09-01T14:07:50.046Z,100903.00
2022-09-01T14:13:12.712Z,100893.34
2022-09-01T14:18:35.478Z,100899.53
2022-09-01T14:23:57.504Z,100898.50
2022-09-01T14:29:19.488Z,100891.28
2022-09-01T14:34:41.313Z,100891.25
2022-09-01T14:40:03.651Z,100873.97
2022-09-01T14:45:27.758Z,100894.34
2022-09-01T14:50:49.652Z,100887.31
2022-09-01T14:56:11.462Z,100889.56
2022-09-01T15:01:34.932Z,100894.69
2022-09-01T15:06:57.435Z,100898.94
2022-09-01T15:12:19.304Z,100892.34
2022-09-01T15:17:44.596Z,100892.06
2022-09-01T15:23:08.641Z,100889.53
2022-09-01T15:28:30.484Z,100894.84
2022-09-01T15:33:55.266Z,100879.88
2022-09-01T15:39:17.100Z,100892.06
2022-09-01T15:44:38.921Z,100873.66
2022-09-01T15:50:00.811Z,100891.75
2022-09-01T15:55:27.468Z,100889.84
2022-09-01T16:00:49.323Z,100881.09
2022-09-01T16:06:11.157Z,100884.69
2022-09-01T16:11:33.073Z,100887.13
2022-09-01T16:17:15.643Z,100886.72
2022-09-01T16:23:17.949Z,100883.25
2022-09-01T16:28:43.483Z,100888.47
2022-09-01T16:34:14.283Z,100879.31
2022-09-01T16:39:55.418Z,100888.34
2022-09-01T16:45:32.481Z,100889.78
2022-09-01T16:51:02.181Z,100892.09
2022-09-01T16:56:23.956Z,100890.69
2022-09-01T17:02:16.903Z,100900.41
2022-09-01T17:08:15.965Z,100907.59
2022-09-01T17:13:42.880Z,100901.47
2022-09-01T17:19:09.335Z,100902.00
2022-09-01T17:24:42.328Z,100905.03
2022-09-01T17:30:05.922Z,100910.38
2022-09-01T17:36:05.894Z,100927.56
2022-09-01T17:41:38.874Z,100933.50
2022-09-01T17:47:22.796Z,100947.78
2022-09-01T17:52:52.919Z,100950.41
2022-09-01T17:58:47.400Z,100957.00
2022-09-01T18:05:06.380Z,100966.53
2022-09-01T18:10:39.924Z,100977.19
2022-09-01T18:16:05.388Z,100981.09
2022-09-01T18:21:34.870Z,100984.31
2022-09-01T18:26:56.713Z,100992.41
2022-09-01T18:32:40.405Z,101009.25
2022-09-01T18:38:08.102Z,101013.28
2022-09-01T18:43:48.734Z,101011.69
2022-09-01T18:49:32.404Z,101017.91
2022-09-01T18:54:58.189Z,101023.25
2022-09-01T19:00:25.627Z,101023.72
2022-09-01T19:05:55.438Z,101026.13
2022-09-01T19:11:22.269Z,101027.31
2022-09-01T19:17:24.921Z,101029.88
2022-09-01T19:23:12.228Z,101032.66
2022-09-01T19:28:36.751Z,101037.41
2022-09-01T19:34:03.292Z,101032.72
2022-09-01T19:39:35.517Z,101032.19
2022-09-01T19:45:09.307Z,101027.47
2022-09-01T19:50:44.429Z,101041.97
2022-09-01T19:56:06.306Z,101047.66
2022-09-01T20:01:40.513Z,101052.38
2022-09-01T20:07:07.781Z,101056.19
2022-09-01T20:12:45.477Z,101061.38
2022-09-01T20:18:19.404Z,101064.56
2022-09-01T20:24:20.336Z,101066.06
2022-09-01T20:30:03.197Z,101081.00
2022-09-01T20:36:05.222Z,101078.81
2022-09-01T20:41:39.397Z,101082.91
2022-09-01T20:47:03.684Z,101092.94
2022-09-01T20:52:28.498Z,101101.94
2022-09-01T20:58:09.079Z,101096.81
2022-09-01T21:03:41.009Z,101102.31
2022-09-01T21:09:15.291Z,101104.53
2022-09-01T21:15:02.785Z,101108.13
2022-09-01T21:20:43.797Z,101104.94
2022-09-01T21:26:05.745Z,101102.06
2022-09-01T21:31:27.559Z,101113.53
2022-09-01T21:36:49.405Z,101118.13
2022-09-01T21:42:15.519Z,101125.22
2022-09-01T21:47:38.321Z,101131.91
2022-09-01T21:53:00.502Z,101126.63
2022-09-01T21:58:22.650Z,101140.88
2022-09-01T22:03:44.471Z,101137.47
2022-09-01T22:09:07.599Z,101142.00
2022-09-01T22:14:43.294Z,101135.84
2022-09-01T22:20:08.019Z,101125.66
2022-09-01T22:25:32.149Z,101122.38
2022-09-01T22:30:54.099Z,101140.81
2022-09-01T22:36:31.560Z,101126.13
2022-09-01T22:41:54.144Z,101140.22
2022-09-01T22:47:16.027Z,101138.44
2022-09-01T22:52:37.980Z,101133.72
2022-09-01T22:57:59.782Z,101139.00
2022-09-01T23:03:22.796Z,101150.25
2022-09-01T23:08:44.809Z,101144.59
2022-09-01T23:14:06.888Z,101145.56
2022-09-01T23:19:28.863Z,101146.47
2022-09-01T23:24:50.719Z,101141.47
2022-09-01T23:30:14.697Z,101140.91
2022-09-01T23:35:36.527Z,101147.00
2022-09-01T23:40:58.369Z,101124.19
2022-09-01T23:46:26.226Z,101139.81
2022-09-01T23:51:49.141Z,101153.72
2022-09-01T23:57:11.020Z,101138.38
